﻿ProjectID	SampleID	SampleType	TaxonomyID	UniqCodeType	UniqCode	SampleName	ScientificName	CommonName	CollectionYear	CollectionMonth	CollectionDay	SamplingTimeStartEnd	SamplingTimeAMPM	SamplingDuration	WeatherStartEnd	CollectionRegion	CollectionCountry	CollectionArea	CollectionLatitudeFrom	CollectionLatitudeTo	CollectionLongitudeFrom	CollectionLongitudeTo	Sex	TissueOrgan	TissueLipid	TissueMoist	Weight	WeightUnit	Length	LengthUnit	LengthType	GrowthStage	Age	Disease	TemperatureStartEnd	WaterTemperatureStartEnd	pH	DO	EC	EC_temp	Salinity	SS	WaterDepthM	TransparencyM	WaterColor	SedimentTemperatureStartEnd	SedimentDepthM	SedimentAppearance	SedimentColor	SedimentSurfaceColor	SedimentOdor	SedimentImpurities	SedimentMoistureOnSiteAnalysis	IgnitionLossOnSiteAnalysis	SoilDepthM	FlowRate	MeanPM10	MeanTotalSuspendedParticles	HumidityStartEnd	WindDirectionStartEnd	WindSpeedMSStartEnd	AmountOfCollectedAirStartEnd	Remarks	RegisterDate	UpdateDate
PRA000084	SAA004785	ST014				St1-UW	Water	"Sea water"	2004							Asia	Japan	"Tokyo Bay"	35.6172		139.9667																					15	"1.10 (sampling depth) / 11"																				"Collected quarterly during 2004-2006 (Feb. 19, May 26, Aug. 22, Oct. 28, 2004 and Feb.24, May 12, Aug. 17, Oct. 26, 2005 and Feb.22, May 17, Aug. 16, Nov. 26, 2006);"	2019/3/11	2019/3/11
PRA000084	SAA004786	ST014				St1-LW	Water	"Sea water"	2004							Asia	Japan	"Tokyo Bay"	35.6172		139.9667																					7.4	"9.90 (sampling depth) / 11"																				"Collected quarterly during 2004-2006 (Feb. 19, May 26, Aug. 22, Oct. 28, 2004 and Feb.24, May 12, Aug. 17, Oct. 26, 2005 and Feb.22, May 17, Aug. 16, Nov. 26, 2006);"	2019/3/11	2019/3/11
PRA000084	SAA004787	ST023				St1-Sed	Sediment	"Marine sediment"	2004	8						Asia	Japan	"Tokyo Bay"	35.6172		139.9667																						11				0.05																"Collected once a year during 2004-2006 (Aug. 22, 2004, Aug. 17, 2005 and Aug. 16, 2006);"	2019/3/11	2019/3/11
PRA000084	SAA004788	ST014				St2-UW	Water	"Sea water"	2004							Asia	Japan	"Tokyo Bay"	35.5975		140.0344																					8.3	"1.20 (sampling depth) / 12"																				"Collected quarterly during 2004-2006 (Feb. 19, May 26, Aug. 22, Oct. 28, 2004 and Feb.24, May 12, Aug. 17, Oct. 26, 2005 and Feb.22, May 17, Aug. 16, Nov. 26, 2006);"	2019/3/11	2019/3/11
PRA000084	SAA004789	ST014				St2-LW	Water	"Sea water"	2004							Asia	Japan	"Tokyo Bay"	35.5975		140.0344																					8.2	"10.80 (sampling depth) / 12"																				"Collected quarterly during 2004-2006 (Feb. 19, May 26, Aug. 22, Oct. 28, 2004 and Feb.24, May 12, Aug. 17, Oct. 26, 2005 and Feb.22, May 17, Aug. 16, Nov. 26, 2006);"	2019/3/11	2019/3/11
PRA000084	SAA004790	ST023				St2-Sed	Sediment	"Marine sediment"	2004	8						Asia	Japan	"Tokyo Bay"	35.5975		140.0344																						12				0.05																"Collected once a year during 2004-2006 (Aug. 22, 2004, Aug. 17, 2005 and Aug. 16, 2006);"	2019/3/11	2019/3/11
PRA000084	SAA004791	ST014				St3-UW	Water	"Sea water"	2004							Asia	Japan	"Tokyo Bay"	35.59		139.8467																					11	"1.20  (samplling depth) / 12"																				"Collected quarterly during 2004-2006 (Feb. 19, May 26, Aug. 22, Oct. 28, 2004 and Feb.24, May 12, Aug. 17, Oct. 26, 2005 and Feb.22, May 17, Aug. 16, Nov. 26, 2006);"	2019/3/11	2019/3/11
PRA000084	SAA004792	ST014				St3-LW	Water	"Sea water"	2004							Asia	Japan	"Tokyo Bay"	35.59		139.8467																					8.2	"10.80 (sampling depth) / 12"																				"Collected quarterly during 2004-2006 (Feb. 19, May 26, Aug. 22, Oct. 28, 2004 and Feb.24, May 12, Aug. 17, Oct. 26, 2005 and Feb.22, May 17, Aug. 16, Nov. 26, 2006);"	2019/3/11	2019/3/11
PRA000084	SAA004793	ST023				St3-Sed	Sediment	"Marine sediment"	2004	8						Asia	Japan	"Tokyo Bay"	35.59		139.8467																						12				0.05																"Collected once a year during 2004-2006 (Aug. 22, 2004, Aug. 17, 2005 and Aug. 16, 2006);"	2019/3/11	2019/3/11
PRA000084	SAA004794	ST014				St4-UW	Water	"Sea water"	2004							Asia	Japan	"Tokyo Bay"	35.5794		139.8897																					8.5	"1.40 (sampling depth) / 14"																				"Collected quarterly during 2004-2006 (Feb. 19, May 26, Aug. 22, Oct. 28, 2004 and Feb.24, May 12, Aug. 17, Oct. 26, 2005 and Feb.22, May 17, Aug. 16, Nov. 26, 2006);"	2019/3/11	2019/3/11
PRA000084	SAA004795	ST014				St4-LW	Water	"Sea water"	2004							Asia	Japan	"Tokyo Bay"	35.5794		139.8897																					7.4	"12.60 (sampling depth) / 14"																				"Collected quarterly during 2004-2006 (Feb. 19, May 26, Aug. 22, Oct. 28, 2004 and Feb.24, May 12, Aug. 17, Oct. 26, 2005 and Feb.22, May 17, Aug. 16, Nov. 26, 2006);"	2019/3/11	2019/3/11
PRA000084	SAA004796	ST023				St4-Sed	Sediment	"Marine sediment"	2004	8						Asia	Japan	"Tokyo Bay"	35.5794		139.8897																						14				0.05																"Collected once a year during 2004-2006 (Aug. 22, 2004, Aug. 17, 2005 and Aug. 16, 2006);"	2019/3/11	2019/3/11
PRA000084	SAA004797	ST014				St5-UW	Water	"Sea water"	2004							Asia	Japan	"Tokyo Bay"	35.5644		139.9431																					6.6	"1.60 (sampling depth) / 16"																				"Collected quarterly during 2004-2006 (Feb. 19, May 26, Aug. 22, Oct. 28, 2004 and Feb.24, May 12, Aug. 17, Oct. 26, 2005 and Feb.22, May 17, Aug. 16, Nov. 26, 2006);"	2019/3/11	2019/3/11
PRA000084	SAA004798	ST014				St5-LW	Water	"Sea water"	2004							Asia	Japan	"Tokyo Bay"	35.5644		139.9431																					6.5	"14.40 (sampling depth) / 16"																				"Collected quarterly during 2004-2006 (Feb. 19, May 26, Aug. 22, Oct. 28, 2004 and Feb.24, May 12, Aug. 17, Oct. 26, 2005 and Feb.22, May 17, Aug. 16, Nov. 26, 2006);"	2019/3/11	2019/3/11
PRA000084	SAA004799	ST023				St5-Sed	Sediment	"Marine sediment"	2004	8						Asia	Japan	"Tokyo Bay"	35.5644		139.9431																						16				0.05																"Collected once a year during 2004-2006 (Aug. 22, 2004, Aug. 17, 2005 and Aug. 16, 2006);"	2019/3/11	2019/3/11
PRA000084	SAA004800	ST014				St6-UW	Water	"Sea water"	2004							Asia	Japan	"Tokyo Bay"	35.5481		139.9931																					7.2	"1.70 (sampling depth) / 17"																				"Collected quarterly during 2004-2006 (Feb. 19, May 26, Aug. 22, Oct. 28, 2004 and Feb.24, May 12, Aug. 17, Oct. 26, 2005 and Feb.22, May 17, Aug. 16, Nov. 26, 2006);"	2019/3/11	2019/3/11
PRA000084	SAA004801	ST014				St6-LW	Water	"Sea water"	2004							Asia	Japan	"Tokyo Bay"	35.5481		139.9931																					8	"15.30 (sampling depth) / 17"																				"Collected quarterly during 2004-2006 (Feb. 19, May 26, Aug. 22, Oct. 28, 2004 and Feb.24, May 12, Aug. 17, Oct. 26, 2005 and Feb.22, May 17, Aug. 16, Nov. 26, 2006);"	2019/3/11	2019/3/11
PRA000084	SAA004802	ST023				St6-Sed	Sediment	"Marine sediment"	2004	8						Asia	Japan	"Tokyo Bay"	35.5481		139.9931																						17				0.05																"Collected once a year during 2004-2006 (Aug. 22, 2004, Aug. 17, 2005 and Aug. 16, 2006); "	2019/3/11	2019/3/11
PRA000084	SAA004803	ST014				St7-UW	Water	"Sea water"	2004							Asia	Japan	"Tokyo Bay"	35.5478		139.8264																					11	"1.90 (sampling depth) / 19"																				"Collected quarterly during 2004-2006 (Feb. 19, May 26, Aug. 22, Oct. 28, 2004 and Feb.24, May 12, Aug. 17, Oct. 26, 2005 and Feb.22, May 17, Aug. 16, Nov. 26, 2006);"	2019/3/11	2019/3/11
PRA000084	SAA004804	ST014				St7-LW	Water	"Sea water"	2004							Asia	Japan	"Tokyo Bay"	35.5478		139.8264																					8.6	"17.10 (sampling depth) / 19"																				"Collected quarterly during 2004-2006 (Feb. 19, May 26, Aug. 22, Oct. 28, 2004 and Feb.24, May 12, Aug. 17, Oct. 26, 2005 and Feb.22, May 17, Aug. 16, Nov. 26, 2006);"	2019/3/11	2019/3/11
PRA000084	SAA004805	ST023				St7-Sed	Sediment	"Marine sediment"	2004	8						Asia	Japan	"Tokyo Bay"	35.5478		139.8264																						19				0.05																"Collected once a year during 2004-2006 (Aug. 22, 2004, Aug. 17, 2005 and Aug. 16, 2006); "	2019/3/11	2019/3/11
PRA000084	SAA004806	ST014				St8-UW	Water	"Sea water"	2004							Asia	Japan	"Tokyo Bay"	35.5358		139.8581																					10	"2.10 (sampling depth) / 21"																				"Collected quarterly during 2004-2006 (Feb. 19, May 26, Aug. 22, Oct. 28, 2004 and Feb.24, May 12, Aug. 17, Oct. 26, 2005 and Feb.22, May 17, Aug. 16, Nov. 26, 2006);"	2019/3/11	2019/3/11
PRA000084	SAA004807	ST014				St8-LW	Water	"Sea water"	2004							Asia	Japan	"Tokyo Bay"	35.5358		139.8581																					7.8	"18.90 (sampling depth) / 21"																				"Collected quarterly during 2004-2006 (Feb. 19, May 26, Aug. 22, Oct. 28, 2004 and Feb.24, May 12, Aug. 17, Oct. 26, 2005 and Feb.22, May 17, Aug. 16, Nov. 26, 2006);"	2019/3/11	2019/3/11
PRA000084	SAA004808	ST023				St8-Sed	Sediment	"Marine sediment"	2004	8						Asia	Japan	"Tokyo Bay"	35.5358		139.8581																						21				0.05																"Collected once a year during 2004-2006 (Aug. 22, 2004, Aug. 17, 2005 and Aug. 16, 2006); "	2019/3/11	2019/3/11
PRA000084	SAA004809	ST014				St9-UW	Water	"Sea water"	2004							Asia	Japan	"Tokyo Bay"	35.525		139.8953																					9.1	"2.20 (sampling depth) / 22"																				"Collected quarterly during 2004-2006 (Feb. 19, May 26, Aug. 22, Oct. 28, 2004 and Feb.24, May 12, Aug. 17, Oct. 26, 2005 and Feb.22, May 17, Aug. 16, Nov. 26, 2006);"	2019/3/11	2019/3/11
PRA000084	SAA004810	ST014				St9-LW	Water	"Sea water"	2004							Asia	Japan	"Tokyo Bay"	35.525		139.8953																					7.3	"19.80 (sampling depth) / 22"																				"Collected quarterly during 2004-2006 (Feb. 19, May 26, Aug. 22, Oct. 28, 2004 and Feb.24, May 12, Aug. 17, Oct. 26, 2005 and Feb.22, May 17, Aug. 16, Nov. 26, 2006);"	2019/3/11	2019/3/11
PRA000084	SAA004811	ST023				St9-Sed	Sediment	"Marine sediment"	2004	8						Asia	Japan	"Tokyo Bay"	35.525		139.8953																						22				0.05																"Collected once a year during 2004-2006 (Aug. 22, 2004, Aug. 17, 2005 and Aug. 16, 2006); "	2019/3/11	2019/3/11
PRA000084	SAA004812	ST014				St10-UW	Water	"Sea water"	2004							Asia	Japan	"Tokyo Bay"	35.5033		139.9531																					8.1	"2.00 (sampling depth) / 20"																				"Collected quarterly during 2004-2006 (Feb. 19, May 26, Aug. 22, Oct. 28, 2004 and Feb.24, May 12, Aug. 17, Oct. 26, 2005 and Feb.22, May 17, Aug. 16, Nov. 26, 2006);"	2019/3/11	2019/3/11
PRA000084	SAA004813	ST014				St10-LW	Water	"Sea water"	2004							Asia	Japan	"Tokyo Bay"	35.5033		139.9531																					9.1	"18.00 (sampling depth) / 20"																				"Collected quarterly during 2004-2006 (Feb. 19, May 26, Aug. 22, Oct. 28, 2004 and Feb.24, May 12, Aug. 17, Oct. 26, 2005 and Feb.22, May 17, Aug. 16, Nov. 26, 2006);"	2019/3/11	2019/3/11
PRA000084	SAA004814	ST023				St10-Sed	Sediment	"Marine sediment"	2004	8						Asia	Japan	"Tokyo Bay"	35.5033		139.9531																						20				0.05																"Collected once a year during 2004-2006 (Aug. 22, 2004, Aug. 17, 2005 and Aug. 16, 2006); "	2019/3/11	2019/3/11
PRA000084	SAA004815	ST014				St11-UW	Water	"Sea water"	2004							Asia	Japan	"Tokyo Bay"	35.4658		139.7775																					8	"3.20 (sampling depth) / 32"																				"Collected quarterly during 2004-2006 (Feb. 19, May 26, Aug. 22, Oct. 28, 2004 and Feb.24, May 12, Aug. 17, Oct. 26, 2005 and Feb.22, May 17, Aug. 16, Nov. 26, 2006);"	2019/3/11	2019/3/11
PRA000084	SAA004816	ST014				St11-LW	Water	"Sea water"	2004							Asia	Japan	"Tokyo Bay"	35.4658		139.7775																					7.5	"28.80 (sampling depth) / 32"																				"Collected quarterly during 2004-2006 (Feb. 19, May 26, Aug. 22, Oct. 28, 2004 and Feb.24, May 12, Aug. 17, Oct. 26, 2005 and Feb.22, May 17, Aug. 16, Nov. 26, 2006);"	2019/3/11	2019/3/11
PRA000084	SAA004817	ST023				St11-Sed	Sediment	"Marine sediment"	2004	8						Asia	Japan	"Tokyo Bay"	35.4658		139.7775																						32				0.05																"Collected once a year during 2004-2006 (Aug. 22, 2004, Aug. 17, 2005 and Aug. 16, 2006); "	2019/3/11	2019/3/11
PRA000084	SAA004818	ST014				St12-UW	Water	"Sea water"	2004							Asia	Japan	"Tokyo Bay"	35.4639		139.8367																					8.1	"3.10 (sampling depth) / 31"																				"Collected quarterly during 2004-2006 (Feb. 19, May 26, Aug. 22, Oct. 28, 2004 and Feb.24, May 12, Aug. 17, Oct. 26, 2005 and Feb.22, May 17, Aug. 16, Nov. 26, 2006); Collected at 35.4603°N, 139.8267°E in 2004 and February 2005."	2019/3/11	2019/3/11
PRA000084	SAA004819	ST014				St12-LW	Water	"Sea water"	2004							Asia	Japan	"Tokyo Bay"	35.4639		139.8367																					8.4	"27.90 (sampling depth) / 31"																				"Collected quarterly during 2004-2006 (Feb. 19, May 26, Aug. 22, Oct. 28, 2004 and Feb.24, May 12, Aug. 17, Oct. 26, 2005 and Feb.22, May 17, Aug. 16, Nov. 26, 2006); Collected at 35.4603°N, 139.8267°E in 2004 and February 2005."	2019/3/11	2019/3/11
PRA000084	SAA004820	ST023				St12-Sed	Sediment	"Marine sediment"	2004	8						Asia	Japan	"Tokyo Bay"	35.4639		139.8367																						31				0.05																"Collected once a year during 2004-2006 (Aug. 22, 2004, Aug. 17, 2005 and Aug. 16, 2006); Collected at 35.4603°N, 139.8267°E in 2004 and February 2005."	2019/3/11	2019/3/11
PRA000084	SAA004821	ST014				St13-UW	Water	"Sea water"	2004							Asia	Japan	"Tokyo Bay"	35.45		139.8725																					8.4	"2.30 (sampling depth) / 23"																				"Collected quarterly during 2004-2006 (Feb. 19, May 26, Aug. 22, Oct. 28, 2004 and Feb.24, May 12, Aug. 17, Oct. 26, 2005 and Feb.22, May 17, Aug. 16, Nov. 26, 2006);"	2019/3/11	2019/3/11
PRA000084	SAA004822	ST014				St13-LW	Water	"Sea water"	2004							Asia	Japan	"Tokyo Bay"	35.45		139.8725																					7.9	"20.70 (sampling depth) / 23"																				"Collected quarterly during 2004-2006 (Feb. 19, May 26, Aug. 22, Oct. 28, 2004 and Feb.24, May 12, Aug. 17, Oct. 26, 2005 and Feb.22, May 17, Aug. 16, Nov. 26, 2006);"	2019/3/11	2019/3/11
PRA000084	SAA004823	ST023				St13-Sed	Sediment	"Marine sediment"	2004	8						Asia	Japan	"Tokyo Bay"	35.45		139.8725																						23				0.05																"Collected once a year during 2004-2006 (Aug. 22, 2004, Aug. 17, 2005 and Aug. 16, 2006); "	2019/3/11	2019/3/11
PRA000084	SAA004824	ST014				St14-UW	Water	"Sea water"	2004							Asia	Japan	"Tokyo Bay"	35.4158		139.7183																					8.2	"3.70 (sampling depth) / 37"																				"Collected quarterly during 2004-2006 (Feb. 19, May 26, Aug. 22, Oct. 28, 2004 and Feb.24, May 12, Aug. 17, Oct. 26, 2005 and Feb.22, May 17, Aug. 16, Nov. 26, 2006);"	2019/3/11	2019/3/11
PRA000084	SAA004825	ST014				St14-LW	Water	"Sea water"	2004							Asia	Japan	"Tokyo Bay"	35.4158		139.7183																					10	"33.30 (sampling depth) / 37"																				"Collected quarterly during 2004-2006 (Feb. 19, May 26, Aug. 22, Oct. 28, 2004 and Feb.24, May 12, Aug. 17, Oct. 26, 2005 and Feb.22, May 17, Aug. 16, Nov. 26, 2006);"	2019/3/11	2019/3/11
PRA000084	SAA004826	ST023				St14-Sed	Sediment	"Marine sediment"	2004	8						Asia	Japan	"Tokyo Bay"	35.4158		139.7183																						37				0.05																"Collected once a year during 2004-2006 (Aug. 22, 2004, Aug. 17, 2005 and Aug. 16, 2006); "	2019/3/11	2019/3/11
PRA000084	SAA004827	ST014				St15-UW	Water	"Sea water"	2004							Asia	Japan	"Tokyo Bay"	35.4083		139.7614																					8.1	"1.90 (sampling depth) / 19"																				"Collected quarterly during 2004-2006 (Feb. 19, May 26, Aug. 22, Oct. 28, 2004 and Feb.24, May 12, Aug. 17, Oct. 26, 2005 and Feb.22, May 17, Aug. 16, Nov. 26, 2006);"	2019/3/11	2019/3/11
PRA000084	SAA004828	ST014				St15-LW	Water	"Sea water"	2004							Asia	Japan	"Tokyo Bay"	35.4083		139.7614																					6.9	"17.10 (sampling depth) / 19"																				"Collected quarterly during 2004-2006 (Feb. 19, May 26, Aug. 22, Oct. 28, 2004 and Feb.24, May 12, Aug. 17, Oct. 26, 2005 and Feb.22, May 17, Aug. 16, Nov. 26, 2006);"	2019/3/11	2019/3/11
PRA000084	SAA004829	ST023				St15-Sed	Sediment	"Marine sediment"	2004	8						Asia	Japan	"Tokyo Bay"	35.4083		139.7614																						19				0.05																"Collected once a year during 2004-2006 (Aug. 22, 2004, Aug. 17, 2005 and Aug. 16, 2006); "	2019/3/11	2019/3/11
PRA000084	SAA004830	ST014				St16-UW	Water	"Sea water"	2004							Asia	Japan	"Tokyo Bay"	35.3856		139.815																					6.9	"1.40 (sampling depth) / 14"																				"Collected quarterly during 2004-2006 (Feb. 19, May 26, Aug. 22, Oct. 28, 2004 and Feb.24, May 12, Aug. 17, Oct. 26, 2005 and Feb.22, May 17, Aug. 16, Nov. 26, 2006);"	2019/3/11	2019/3/11
PRA000084	SAA004831	ST014				St16-LW	Water	"Sea water"	2004							Asia	Japan	"Tokyo Bay"	35.3856		139.815																					7	"12.60 (sampling depth) / 14"																				"Collected quarterly during 2004-2006 (Feb. 19, May 26, Aug. 22, Oct. 28, 2004 and Feb.24, May 12, Aug. 17, Oct. 26, 2005 and Feb.22, May 17, Aug. 16, Nov. 26, 2006);"	2019/3/11	2019/3/11
PRA000084	SAA004832	ST023				St16-Sed	Sediment	"Marine sediment"	2004	8						Asia	Japan	"Tokyo Bay"	35.3856		139.815																						14				0.05																"Collected once a year during 2004-2006 (Aug. 22, 2004, Aug. 17, 2005 and Aug. 16, 2006); "	2019/3/11	2019/3/11
PRA000084	SAA004833	ST014				St17-UW	Water	"Sea water"	2004							Asia	Japan	"Tokyo Bay"	35.3528		139.6881																					6.8	"4.40 (sampling depth) / 44"																				"Collected quarterly during 2004-2006 (Feb. 19, May 26, Aug. 22, Oct. 28, 2004 and Feb.24, May 12, Aug. 17, Oct. 26, 2005 and Feb.22, May 17, Aug. 16, Nov. 26, 2006);"	2019/3/11	2019/3/11
PRA000084	SAA004834	ST014				St17-LW	Water	"Sea water"	2004							Asia	Japan	"Tokyo Bay"	35.3528		139.6881																					11	"39.60 (sampling depth) / 44"																				"Collected quarterly during 2004-2006 (Feb. 19, May 26, Aug. 22, Oct. 28, 2004 and Feb.24, May 12, Aug. 17, Oct. 26, 2005 and Feb.22, May 17, Aug. 16, Nov. 26, 2006);"	2019/3/11	2019/3/11
PRA000084	SAA004835	ST023				St17-Sed	Sediment	"Marine sediment"	2004	8						Asia	Japan	"Tokyo Bay"	35.3528		139.6881																						44				0.05																"Collected once a year during 2004-2006 (Aug. 22, 2004, Aug. 17, 2005 and Aug. 16, 2006); "	2019/3/11	2019/3/11
PRA000084	SAA004836	ST014				St18-UW	Water	"Sea water"	2004							Asia	Japan	"Tokyo Bay"	35.3486		139.7253																					7.1	"2.60 (sampling depth) / 26"																				"Collected quarterly during 2004-2006 (Feb. 19, May 26, Aug. 22, Oct. 28, 2004 and Feb.24, May 12, Aug. 17, Oct. 26, 2005 and Feb.22, May 17, Aug. 16, Nov. 26, 2006);"	2019/3/11	2019/3/11
PRA000084	SAA004837	ST014				St18-LW	Water	"Sea water"	2004							Asia	Japan	"Tokyo Bay"	35.3486		139.7253																					6.5	"23.40 (sampling depth) / 26"																				"Collected quarterly during 2004-2006 (Feb. 19, May 26, Aug. 22, Oct. 28, 2004 and Feb.24, May 12, Aug. 17, Oct. 26, 2005 and Feb.22, May 17, Aug. 16, Nov. 26, 2006);"	2019/3/11	2019/3/11
PRA000084	SAA004838	ST023				St18-Sed	Sediment	"Marine sediment"	2004	8						Asia	Japan	"Tokyo Bay"	35.3486		139.7253																						26				0.05																"Collected once a year during 2004-2006 (Aug. 22, 2004, Aug. 17, 2005 and Aug. 16, 2006);"	2019/3/11	2019/3/11
PRA000084	SAA004839	ST014				St19-UW	Water	"Sea water"	2004							Asia	Japan	"Tokyo Bay"	35.3433		139.7753																					7.6	"1.40 (sampling depth) / 14"																				"Collected quarterly during 2004-2006 (Feb. 19, May 26, Aug. 22, Oct. 28, 2004 and Feb.24, May 12, Aug. 17, Oct. 26, 2005 and Feb.22, May 17, Aug. 16, Nov. 26, 2006); Collected at 35.3389°N in 2004 and February 2005."	2019/3/11	2019/3/11
PRA000084	SAA004840	ST014				St19-LW	Water	"Sea water"	2004							Asia	Japan	"Tokyo Bay"	35.3433		139.7753																					8.6	"12.60 (sampling depth) / 14"																				"Collected quarterly during 2004-2006 (Feb. 19, May 26, Aug. 22, Oct. 28, 2004 and Feb.24, May 12, Aug. 17, Oct. 26, 2005 and Feb.22, May 17, Aug. 16, Nov. 26, 2006); Collected at 35.3389°N in 2004 and February 2005."	2019/3/11	2019/3/11
PRA000084	SAA004841	ST023				St19-Sed	Sediment	"Marine sediment"	2004	8						Asia	Japan	"Tokyo Bay"	35.3433		139.7753																						14				0.05																"Collected once a year during 2004-2006 (Aug. 22, 2004, Aug. 17, 2005 and Aug. 16, 2006); Collected at 35.3389°N in 2004 and February 2005."	2019/3/11	2019/3/11
PRA000084	SAA004842	ST014				St20-UW	Water	"Sea water"	2004							Asia	Japan	"Tokyo Bay"	35.3103		139.7167																					8	"5.20 (sampling depth) / 52"																				"Collected quarterly during 2004-2006 (Feb. 19, May 26, Aug. 22, Oct. 28, 2004 and Feb.24, May 12, Aug. 17, Oct. 26, 2005 and Feb.22, May 17, Aug. 16, Nov. 26, 2006); Collected at 139.7081°E in 2004 and February 2005."	2019/3/11	2019/3/11
PRA000084	SAA004843	ST014				St20-LW	Water	"Sea water"	2004							Asia	Japan	"Tokyo Bay"	35.3103		139.7167																					6.2	"46.80 (sampling depth) / 52"																				"Collected quarterly during 2004-2006 (Feb. 19, May 26, Aug. 22, Oct. 28, 2004 and Feb.24, May 12, Aug. 17, Oct. 26, 2005 and Feb.22, May 17, Aug. 16, Nov. 26, 2006); Collected at 139.7081°E in 2004 and February 2005."	2019/3/11	2019/3/11
PRA000084	SAA004844	ST023				St20-Sed	Sediment	"Marine sediment"	2004	8						Asia	Japan	"Tokyo Bay"	35.3103		139.7167																						52				0.05																"Collected once a year during 2004-2006 (Aug. 22, 2004, Aug. 17, 2005 and Aug. 16, 2006); Collected at 139.7081°E in 2004 and February 2005."	2019/3/11	2019/3/11
